Time;durP1;ratioP1;P1;durP2;ratioP2;P2;SDS_P1;SDS_P2;PMS_P1;PMS_P2;Temp;Humidity;BMP_temperature;BMP_pressure;BME280_temperature;BME280_humidity;BME280_pressure;Samples;Min_cycle;Max_cycle;Signal;HPM_P1;HPM_P2
2022/01/20 04:58:13;;;;;;;32.92;17.67;;;;;;;1.02;66.49;100796.28;5605734;31;77867;-58
2022/01/20 05:01:15;;;;;;;34.72;19.65;;;;;;;1.02;66.49;100796.28;5583779;31;33217;-58
2022/01/20 05:04:19;;;;;;;36.65;19.98;;;;;;;0.51;75.37;100783.78;5583618;31;33766;-58
2022/01/20 05:07:26;;;;;;;34.88;20.60;;;;;;;0.73;73.09;100787.03;5583445;31;34073;-58
2022/01/20 05:10:32;;;;;;;40.33;20.98;;;;;;;0.90;72.60;100782.13;5588495;31;33213;-58
2022/01/20 05:13:40;;;;;;;34.05;20.62;;;;;;;0.93;75.22;100782.53;5601640;31;33149;-58
2022/01/20 05:16:43;;;;;;;33.25;17.52;;;;;;;1.33;75.62;100790.34;5589521;31;33343;-58
2022/01/20 05:19:45;;;;;;;30.05;17.98;;;;;;;1.09;67.96;100783.09;5581822;31;32770;-58
2022/01/20 05:22:48;;;;;;;30.52;17.75;;;;;;;0.99;67.21;100785.34;5581911;31;33320;-57
2022/01/20 05:25:51;;;;;;;30.92;18.62;;;;;;;0.97;66.70;100784.75;5582348;31;34272;-58
2022/01/20 05:28:55;;;;;;;32.88;19.08;;;;;;;0.80;71.57;100782.56;5583381;31;33479;-58
2022/01/20 05:31:57;;;;;;;36.90;19.30;;;;;;;1.18;67.09;100777.38;5582419;32;33572;-58
2022/01/20 05:35:04;;;;;;;32.03;19.75;;;;;;;1.54;83.37;100780.50;5585269;31;34428;-58
2022/01/20 05:38:07;;;;;;;30.12;19.25;;;;;;;1.73;77.05;100778.78;5602545;31;33422;-58
2022/01/20 05:41:12;;;;;;;31.85;19.80;;;;;;;1.55;68.94;100774.16;5602911;31;34080;-58
2022/01/20 05:44:17;;;;;;;37.55;19.70;;;;;;;1.40;68.49;100777.09;5601689;31;33460;-58
2022/01/20 05:47:26;;;;;;;37.55;20.62;;;;;;;1.64;75.03;100786.13;5601138;31;33331;-58
2022/01/20 05:50:30;;;;;;;34.25;20.42;;;;;;;1.49;75.89;100790.88;5589484;31;33855;-58
2022/01/20 05:53:33;;;;;;;32.75;19.55;;;;;;;1.51;66.50;100786.19;5563123;32;34179;-58
2022/01/20 05:56:36;;;;;;;34.10;20.37;;;;;;;1.53;66.84;100779.69;5567044;32;33393;-55
2022/01/20 05:59:38;;;;;;;34.08;20.55;;;;;;;1.56;70.95;100781.91;5570471;32;33336;-56
2022/01/20 06:06:07;;;;;;;33.70;19.23;;;;;;;1.48;66.67;100771.56;5568750;32;34374;-56
2022/01/20 06:09:10;;;;;;;34.25;20.15;;;;;;;1.47;66.82;100780.53;5568622;32;34326;-56
2022/01/20 06:12:13;;;;;;;34.30;19.33;;;;;;;1.58;66.29;100784.31;5572500;31;32942;-55
2022/01/20 06:15:15;;;;;;;33.15;19.62;;;;;;;1.57;68.30;100775.59;5576230;31;33641;-56
2022/01/20 06:18:18;;;;;;;32.50;19.37;;;;;;;1.86;67.73;100778.69;5579921;31;33691;-55
2022/01/20 06:21:20;;;;;;;32.35;20.08;;;;;;;1.84;66.85;100770.97;5585231;31;32813;-56
2022/01/20 06:24:23;;;;;;;36.17;20.20;;;;;;;1.62;66.19;100775.78;5560148;31;34410;-56
2022/01/20 06:27:25;;;;;;;33.58;20.88;;;;;;;1.52;67.02;100777.22;5567942;32;33744;-56
2022/01/20 06:30:29;;;;;;;31.58;19.98;;;;;;;1.66;77.72;100778.81;5564809;32;34318;-56
2022/01/20 06:33:32;;;;;;;35.90;21.25;;;;;;;1.72;75.57;100782.41;5567259;31;33604;-55
2022/01/20 06:36:35;;;;;;;41.13;21.37;;;;;;;1.63;67.51;100777.41;5550425;32;34146;-56
2022/01/20 06:39:38;;;;;;;37.00;20.83;;;;;;;1.62;69.47;100783.72;5550368;32;32792;-55
2022/01/20 06:42:41;;;;;;;40.60;20.90;;;;;;;1.74;69.24;100794.41;5558326;32;33235;-56
2022/01/20 06:45:45;;;;;;;38.03;21.60;;;;;;;1.74;71.23;100788.31;5551239;32;33459;-56
2022/01/20 06:48:48;;;;;;;31.55;20.02;;;;;;;1.76;67.56;100792.38;5569019;32;34376;-56
2022/01/20 06:51:51;;;;;;;37.63;22.10;;;;;;;1.74;68.11;100769.81;5567158;31;34445;-55
2022/01/20 06:54:55;;;;;;;35.03;21.17;;;;;;;1.78;73.60;100777.09;5568713;32;34317;-55
2022/01/20 06:58:02;;;;;;;39.95;21.80;;;;;;;1.93;66.59;100778.66;5573450;31;34494;-56
2022/01/20 07:01:04;;;;;;;38.17;22.48;;;;;;;2.08;66.80;100765.94;5562610;31;33738;-56
2022/01/20 07:04:09;;;;;;;32.90;20.60;;;;;;;2.27;65.58;100749.09;5549578;32;34477;-55
2022/01/20 07:07:12;;;;;;;39.08;21.87;;;;;;;2.18;66.46;100742.44;5549657;32;33742;-56
2022/01/20 07:10:18;;;;;;;42.72;21.65;;;;;;;2.15;67.52;100745.53;5548596;32;33459;-55
2022/01/20 07:13:20;;;;;;;39.80;21.73;;;;;;;2.22;66.12;100741.00;5552875;32;33761;-55
2022/01/20 07:16:23;;;;;;;39.13;23.83;;;;;;;2.40;75.00;100742.88;5554047;32;33763;-56
2022/01/20 07:19:25;;;;;;;84.18;26.87;;;;;;;2.54;78.37;100738.28;5567576;32;33329;-56
2022/01/20 07:22:27;;;;;;;48.60;23.10;;;;;;;2.79;72.61;100736.41;5565120;32;33201;-56
2022/01/20 07:25:31;;;;;;;43.35;22.17;;;;;;;2.92;75.00;100737.31;5562004;32;33232;-56
2022/01/20 07:28:34;;;;;;;32.53;19.58;;;;;;;3.01;69.21;100723.56;5568770;32;33748;-56
2022/01/20 07:31:39;;;;;;;34.40;20.97;;;;;;;3.20;79.41;100721.66;5567779;31;34097;-56
2022/01/20 07:34:44;;;;;;;28.90;20.02;;;;;;;3.49;76.39;100719.28;5567108;31;34452;-56
2022/01/20 07:37:48;;;;;;;33.22;19.83;;;;;;;3.34;68.38;100711.72;5568245;31;34140;-56
2022/01/20 07:40:51;;;;;;;62.00;21.42;;;;;;;3.22;68.24;100719.63;5568001;31;33683;-56
2022/01/20 07:43:56;;;;;;;37.15;21.30;;;;;;;3.09;65.59;100725.09;5562525;32;34298;-56
2022/01/20 07:47:00;;;;;;;31.87;20.23;;;;;;;3.17;65.53;100727.41;5563907;32;33788;-56
2022/01/20 07:50:05;;;;;;;31.83;19.70;;;;;;;3.24;65.00;100727.34;5567688;31;32008;-55
2022/01/20 07:53:07;;;;;;;40.72;21.17;;;;;;;3.32;69.67;100726.25;5552188;32;33436;-56
2022/01/20 07:56:10;;;;;;;33.83;20.20;;;;;;;3.20;65.88;100713.72;5565476;32;33410;-56
2022/01/20 07:59:12;;;;;;;33.95;19.92;;;;;;;3.24;67.17;100716.72;5568435;31;34072;-56
2022/01/20 08:02:16;;;;;;;35.83;20.77;;;;;;;3.34;68.52;100706.41;5567776;32;33365;-56
2022/01/20 08:05:20;;;;;;;37.28;20.10;;;;;;;3.54;69.15;100719.41;5562572;31;34198;-56
2022/01/20 08:08:23;;;;;;;28.48;18.73;;;;;;;3.58;66.19;100717.12;5565395;31;33244;-56
2022/01/20 08:11:27;;;;;;;29.37;19.42;;;;;;;3.64;72.80;100710.91;5548750;32;33423;-56
2022/01/20 08:14:31;;;;;;;33.92;20.15;;;;;;;4.03;74.24;100704.19;5548920;32;33220;-56
2022/01/20 08:17:34;;;;;;;34.55;20.92;;;;;;;4.22;67.73;100712.88;5548617;32;33285;-56
2022/01/20 08:20:36;;;;;;;32.80;20.70;;;;;;;4.18;65.14;100720.47;5548854;32;33594;-56
2022/01/20 08:23:39;;;;;;;32.28;20.60;;;;;;;4.16;65.40;100719.91;5548832;32;34824;-56
2022/01/20 08:26:41;;;;;;;33.00;20.05;;;;;;;4.40;69.10;100717.25;5548997;32;33436;-56
2022/01/20 08:29:44;;;;;;;34.97;19.50;;;;;;;4.34;71.83;100720.81;5547741;32;34081;-56
2022/01/20 08:35:57;;;;;;;32.33;18.83;;;;;;;4.65;72.45;100712.53;5548264;32;33266;-56
2022/01/20 08:39:00;;;;;;;30.05;18.87;;;;;;;4.56;67.92;100715.75;5548035;32;31748;-56
2022/01/20 08:42:05;;;;;;;29.27;18.87;;;;;;;4.53;67.23;100713.56;5548495;32;33399;-56
2022/01/20 08:45:10;;;;;;;28.52;18.98;;;;;;;4.65;62.79;100715.19;5548368;32;33471;-56
2022/01/20 08:48:13;;;;;;;28.20;17.75;;;;;;;4.64;62.52;100716.22;5548269;32;33386;-56
2022/01/20 08:51:16;;;;;;;31.58;19.98;;;;;;;4.66;71.01;100714.13;5548124;32;33223;-56
2022/01/20 08:54:20;;;;;;;28.30;19.73;;;;;;;4.88;63.22;100709.03;5548019;32;33251;-56
2022/01/20 08:57:22;;;;;;;29.90;18.73;;;;;;;4.89;75.90;100707.97;5547901;32;31852;-56
2022/01/20 09:00:28;;;;;;;31.85;19.70;;;;;;;4.84;64.71;100701.75;5547754;32;33855;-56
2022/01/20 09:03:32;;;;;;;31.95;19.40;;;;;;;4.82;62.81;100707.28;5548068;32;34493;-55
2022/01/20 09:06:35;;;;;;;34.30;19.62;;;;;;;4.97;63.13;100717.44;5547909;32;33154;-56
2022/01/20 09:09:43;;;;;;;29.50;19.50;;;;;;;5.32;64.24;100722.66;5547769;32;34172;-55
2022/01/20 09:15:50;;;;;;;31.15;20.02;;;;;;;5.31;61.34;100729.00;5547489;32;33289;-56
2022/01/20 09:18:53;;;;;;;32.85;19.77;;;;;;;5.26;62.28;100726.25;5548037;32;32644;-56
2022/01/20 09:21:55;;;;;;;32.33;19.12;;;;;;;5.30;64.53;100726.59;5547155;32;33614;-56
2022/01/20 09:24:58;;;;;;;26.90;18.62;;;;;;;5.11;62.58;100723.31;5547371;32;33637;-56
2022/01/20 09:28:00;;;;;;;28.85;19.83;;;;;;;5.15;62.38;100727.91;5546348;32;34255;-56
2022/01/20 09:31:03;;;;;;;33.50;19.65;;;;;;;5.14;62.19;100726.28;5548269;32;34400;-56
2022/01/20 09:34:06;;;;;;;32.08;20.02;;;;;;;5.16;62.47;100724.19;5546892;32;33362;-56
2022/01/20 09:37:09;;;;;;;30.40;20.33;;;;;;;5.28;61.91;100734.00;5547371;32;33961;-56
2022/01/20 09:40:11;;;;;;;39.42;20.88;;;;;;;5.17;63.08;100722.38;5547263;32;34072;-56
2022/01/20 09:43:14;;;;;;;33.10;20.40;;;;;;;5.16;63.23;100720.72;5547960;32;33538;-56
2022/01/20 09:46:17;;;;;;;34.20;20.27;;;;;;;5.18;63.44;100719.47;5550157;32;34442;-56
2022/01/20 09:49:21;;;;;;;30.67;20.15;;;;;;;5.19;63.83;100715.75;5550127;32;33466;-56
2022/01/20 09:52:27;;;;;;;33.67;20.60;;;;;;;5.31;64.22;100725.56;5549874;32;33528;-56
2022/01/20 09:55:32;;;;;;;29.63;18.48;;;;;;;5.46;65.49;100717.03;5549125;32;33351;-56
2022/01/20 09:58:34;;;;;;;26.95;17.87;;;;;;;5.56;63.14;100719.88;5549130;32;33385;-56
2022/01/20 10:01:40;;;;;;;26.62;16.83;;;;;;;5.62;63.10;100716.28;5568231;31;33295;-56
2022/01/20 10:04:44;;;;;;;;;;;;;;;5.68;62.45;100711.87;5568378;31;33413;-55
2022/01/20 10:07:49;;;;;;;26.65;16.08;;;;;;;5.77;63.87;100711.25;5569419;32;34752;-56
2022/01/20 10:10:56;;;;;;;31.33;17.58;;;;;;;5.78;64.13;100707.53;5569632;32;33268;-56
2022/01/20 10:14:12;;;;;;;27.70;16.50;;;;;;;5.80;63.65;100710.75;5566362;31;34197;-55
2022/01/20 10:17:22;;;;;;;26.92;16.70;;;;;;;5.83;65.15;100694.31;5549428;32;33534;-56
2022/01/20 10:20:24;;;;;;;30.85;14.68;;;;;;;5.75;65.62;100697.34;5556827;31;33990;-56
2022/01/20 10:23:28;;;;;;;20.08;13.62;;;;;;;5.71;65.02;100693.56;5561764;32;34161;-56
2022/01/20 10:26:31;;;;;;;20.30;12.52;;;;;;;5.70;69.24;100683.19;5549566;32;34226;-56
2022/01/20 10:29:34;;;;;;;17.58;12.05;;;;;;;5.60;69.81;100679.28;5564417;32;33293;-56
2022/01/20 10:32:58;;;;;;;17.17;11.35;;;;;;;5.59;70.27;100674.19;5562094;31;33693;-56
2022/01/20 10:36:10;;;;;;;16.87;11.63;;;;;;;5.42;71.09;100667.00;5560022;32;34301;-56
2022/01/20 10:39:13;;;;;;;16.20;10.07;;;;;;;5.47;71.84;100660.19;5566938;31;34394;-56
2022/01/20 10:42:25;;;;;;;16.65;10.55;;;;;;;5.55;72.12;100665.09;5567789;31;34133;-56
2022/01/20 10:45:34;;;;;;;17.35;10.00;;;;;;;5.51;73.73;100664.78;5568585;32;33685;-56
2022/01/20 10:48:38;;;;;;;15.20;9.45;;;;;;;5.56;75.32;100654.25;5568487;32;32958;-56
2022/01/20 10:51:43;;;;;;;12.90;10.20;;;;;;;5.59;72.82;100652.94;5566505;31;33299;-56
2022/01/20 10:54:49;;;;;;;13.65;8.57;;;;;;;5.60;73.73;100660.69;5566448;31;33424;-56
2022/01/20 10:57:53;;;;;;;11.38;7.78;;;;;;;5.56;73.03;100648.91;5564039;31;34450;-56
2022/01/20 11:00:57;;;;;;;10.25;7.50;;;;;;;5.43;74.66;100651.88;5547751;32;33459;-56
2022/01/20 11:04:00;;;;;;;15.02;8.23;;;;;;;5.41;73.88;100638.00;5545994;32;34417;-55
2022/01/20 11:07:07;;;;;;;13.00;8.07;;;;;;;5.38;74.67;100635.81;5548117;32;34643;-56
2022/01/20 11:10:17;;;;;;;12.02;7.97;;;;;;;5.41;74.71;100624.72;5547401;32;33431;-55
2022/01/20 11:13:20;;;;;;;13.32;8.02;;;;;;;5.55;75.48;100614.56;5566109;31;33913;-55
2022/01/20 11:16:22;;;;;;;13.25;8.15;;;;;;;5.78;74.43;100603.78;5566275;31;33258;-56
2022/01/20 11:19:31;;;;;;;11.63;7.70;;;;;;;5.89;73.49;100604.72;5547599;32;33828;-56
2022/01/20 11:22:34;;;;;;;10.68;7.72;;;;;;;5.95;73.30;100603.78;5548615;32;31915;-56
2022/01/20 11:25:40;;;;;;;14.32;8.05;;;;;;;5.89;73.35;100612.72;5586797;31;34206;-56
2022/01/20 11:28:58;;;;;;;11.60;6.90;;;;;;;5.96;73.35;100609.91;5587974;31;34248;-57
2022/01/20 11:32:02;;;;;;;9.45;6.50;;;;;;;6.11;72.42;100602.16;5571690;31;34397;-56
2022/01/20 11:35:20;;;;;;;10.68;7.70;;;;;;;6.21;71.36;100586.31;5561601;31;33986;-56
2022/01/20 11:38:37;;;;;;;9.32;6.60;;;;;;;6.28;71.15;100581.62;5562268;32;33366;-56
2022/01/20 11:41:52;;;;;;;9.13;5.57;;;;;;;6.30;71.98;100568.09;5564989;31;33630;-56
2022/01/20 11:44:56;;;;;;;11.70;5.90;;;;;;;6.34;71.31;100556.69;5555376;32;33574;-56
2022/01/20 11:48:23;;;;;;;9.43;5.95;;;;;;;6.37;70.28;100552.72;5548894;32;33845;-58
2022/01/20 11:51:40;;;;;;;9.13;6.00;;;;;;;6.56;69.88;100534.56;5557592;32;33726;-58
2022/01/20 11:55:10;;;;;;;10.27;6.43;;;;;;;6.64;68.57;100541.31;5567747;32;33989;-57
2022/01/20 11:58:16;;;;;;;10.07;5.65;;;;;;;6.56;68.83;100540.69;5565508;31;33983;-58
2022/01/20 12:01:18;;;;;;;7.12;5.15;;;;;;;6.59;68.00;100526.09;5557847;31;33357;-57
2022/01/20 12:04:37;;;;;;;8.25;5.75;;;;;;;6.66;68.33;100528.56;5559477;31;33110;-58
2022/01/20 12:07:40;;;;;;;8.00;5.47;;;;;;;6.69;67.42;100520.03;5567743;31;34396;-58
2022/01/20 12:10:45;;;;;;;7.10;5.12;;;;;;;6.85;67.89;100513.81;5546803;32;34329;-59
2022/01/20 12:13:50;;;;;;;10.25;5.30;;;;;;;6.62;66.06;100506.91;5546862;32;33892;-58
2022/01/20 12:17:01;;;;;;;6.82;5.15;;;;;;;6.67;66.37;100492.84;5550880;32;34116;-58
2022/01/20 12:20:07;;;;;;;8.13;5.10;;;;;;;6.71;70.55;100497.41;5553393;31;33803;-58
2022/01/20 12:23:11;;;;;;;10.32;6.55;;;;;;;6.76;66.65;100494.81;5572892;31;33249;-58
2022/01/20 12:26:14;;;;;;;7.97;4.85;;;;;;;6.82;66.91;100496.47;5557431;32;33262;-58
2022/01/20 12:29:16;;;;;;;8.00;5.43;;;;;;;6.84;66.01;100496.22;5555516;31;33644;-58
2022/01/20 12:32:21;;;;;;;8.20;5.10;;;;;;;6.85;66.61;100491.69;5554304;32;33669;-58
2022/01/20 12:35:24;;;;;;;6.85;4.85;;;;;;;6.85;66.20;100489.81;5558836;31;33644;-58
2022/01/20 12:38:35;;;;;;;8.48;4.80;;;;;;;6.92;64.63;100471.78;5559320;31;33732;-59
2022/01/20 12:41:37;;;;;;;8.35;5.35;;;;;;;6.98;64.31;100478.75;5564849;31;33244;-58
2022/01/20 12:45:01;;;;;;;7.65;5.10;;;;;;;7.06;64.13;100469.50;5567688;31;34268;-58
2022/01/20 12:48:18;;;;;;;6.20;4.35;;;;;;;7.32;64.63;100467.84;5571189;31;35040;-58
2022/01/20 12:51:35;;;;;;;7.12;4.95;;;;;;;7.22;60.57;100459.78;5559837;31;33658;-57
2022/01/20 12:54:39;;;;;;;7.22;4.85;;;;;;;7.30;69.05;100457.41;5546748;32;33818;-58
2022/01/20 12:57:42;;;;;;;8.50;4.68;;;;;;;7.14;61.52;100446.91;5572041;31;34080;-58
2022/01/20 13:00:44;;;;;;;7.05;4.70;;;;;;;7.22;62.53;100441.09;5567528;32;33672;-59
2022/01/20 13:03:48;;;;;;;8.07;5.15;;;;;;;7.01;60.18;100453.47;5566724;32;33808;-58
2022/01/20 13:06:56;;;;;;;8.88;4.87;;;;;;;7.13;61.11;100431.97;5563314;32;33143;-58
2022/01/20 13:10:06;;;;;;;6.72;4.95;;;;;;;7.17;60.59;100427.72;5561559;32;33656;-59
2022/01/20 13:13:16;;;;;;;6.30;4.72;;;;;;;7.23;60.63;100413.37;5569191;31;33669;-57
2022/01/20 13:16:18;;;;;;;7.50;4.70;;;;;;;7.12;60.22;100417.00;5554007;32;33680;-56
2022/01/20 13:19:44;;;;;;;7.55;4.50;;;;;;;6.98;60.03;100428.09;5566936;31;33753;-56
2022/01/20 13:23:08;;;;;;;7.75;4.90;;;;;;;7.02;60.17;100423.91;5574072;31;32394;-56
2022/01/20 13:26:10;;;;;;;6.78;4.50;;;;;;;7.01;61.05;100414.28;5579063;31;33794;-56
2022/01/20 13:29:13;;;;;;;6.28;4.50;;;;;;;7.03;60.28;100395.38;5587767;31;34338;-56
2022/01/20 13:32:16;;;;;;;7.75;4.70;;;;;;;7.20;60.45;100392.56;5561433;31;33801;-56
2022/01/20 13:35:19;;;;;;;6.32;4.00;;;;;;;7.43;74.40;100378.81;5570130;31;34419;-56
2022/01/20 13:38:29;;;;;;;6.70;3.90;;;;;;;7.43;58.70;100380.69;5562056;31;35715;-56
2022/01/20 13:41:32;;;;;;;5.28;3.75;;;;;;;7.22;57.02;100377.13;5559524;31;33665;-56
2022/01/20 13:47:59;;;;;;;7.35;4.07;;;;;;;7.16;58.27;100388.81;5549881;32;34307;-56
2022/01/20 13:51:03;;;;;;;4.85;3.53;;;;;;;7.13;57.29;100381.31;5551132;32;33864;-56
2022/01/20 13:54:06;;;;;;;7.10;4.10;;;;;;;6.88;57.49;100379.25;5553127;32;33658;-56
2022/01/20 13:57:09;;;;;;;7.07;4.18;;;;;;;6.91;58.60;100376.88;5550212;32;33291;-56
2022/01/20 14:00:13;;;;;;;6.55;4.12;;;;;;;6.94;59.41;100351.59;5550951;32;33592;-56
2022/01/20 14:03:16;;;;;;;6.22;3.78;;;;;;;7.03;57.78;100358.06;5567584;32;33632;-56
2022/01/20 14:06:22;;;;;;;7.10;3.78;;;;;;;7.15;63.34;100374.69;5558234;32;33994;-55
2022/01/20 14:09:24;;;;;;;7.40;4.20;;;;;;;6.96;56.76;100381.47;5568496;32;34334;-56
2022/01/20 14:12:26;;;;;;;5.57;3.55;;;;;;;6.91;58.37;100379.56;5554500;32;33620;-56
2022/01/20 14:15:29;;;;;;;6.43;4.25;;;;;;;6.96;64.19;100374.28;5565544;32;33774;-56
2022/01/20 14:18:45;;;;;;;7.05;4.05;;;;;;;6.94;56.81;100367.59;5567974;32;34309;-56
2022/01/20 14:21:47;;;;;;;7.12;3.92;;;;;;;6.85;57.56;100369.91;5564313;32;34318;-56
2022/01/20 14:24:50;;;;;;;6.15;4.18;;;;;;;7.17;57.37;100369.06;5554003;32;33639;-56
2022/01/20 14:27:54;;;;;;;6.10;3.87;;;;;;;7.03;57.29;100366.84;5549852;32;33626;-56
2022/01/20 14:30:56;;;;;;;6.50;3.97;;;;;;;7.12;58.01;100372.53;5549212;32;34209;-56
2022/01/20 14:33:59;;;;;;;7.97;3.37;;;;;;;7.05;55.59;100350.59;5558941;31;34442;-56
2022/01/20 14:37:01;;;;;;;6.95;3.78;;;;;;;7.05;55.04;100351.41;5550093;32;34197;-57
2022/01/20 14:40:06;;;;;;;4.82;3.10;;;;;;;7.22;56.92;100345.13;5549831;32;33731;-57
2022/01/20 14:43:08;;;;;;;6.70;3.58;;;;;;;7.27;54.85;100337.94;5549788;32;33709;-56
2022/01/20 14:46:11;;;;;;;7.43;3.30;;;;;;;7.33;53.66;100341.44;5547493;32;34161;-57
2022/01/20 14:49:13;;;;;;;4.47;3.20;;;;;;;7.10;54.26;100358.63;5553081;32;33671;-56
2022/01/20 14:52:15;;;;;;;5.18;3.35;;;;;;;6.97;54.28;100335.91;5550884;32;34558;-56
2022/01/20 14:55:18;;;;;;;6.25;3.40;;;;;;;7.00;54.60;100329.25;5548466;32;34195;-57
2022/01/20 14:58:21;;;;;;;6.35;3.25;;;;;;;7.00;54.92;100324.72;5566689;32;33409;-57
2022/01/20 15:01:23;;;;;;;5.68;3.03;;;;;;;7.30;53.52;100324.06;5565393;32;33685;-57
2022/01/20 15:04:26;;;;;;;6.03;3.15;;;;;;;7.26;53.53;100319.53;5548719;32;33693;-57
2022/01/20 15:07:28;;;;;;;7.87;3.62;;;;;;;7.26;53.56;100319.53;5555402;31;33784;-56
2022/01/20 15:10:31;;;;;;;6.35;3.40;;;;;;;7.07;53.48;100321.81;5575500;31;33669;-57
2022/01/20 15:13:33;;;;;;;6.47;3.42;;;;;;;7.00;53.02;100323.91;5571566;31;33831;-56
2022/01/20 15:16:35;;;;;;;5.43;3.67;;;;;;;7.04;52.92;100333.81;5547960;32;34292;-57
2022/01/20 15:19:38;;;;;;;4.87;2.90;;;;;;;7.11;53.19;100327.44;5547486;32;33689;-56
2022/01/20 15:22:40;;;;;;;5.30;3.17;;;;;;;7.07;52.88;100319.97;5562093;32;33816;-56
2022/01/20 15:25:42;;;;;;;8.32;3.47;;;;;;;6.82;53.27;100322.47;5567359;32;33950;-56
2022/01/20 15:28:47;;;;;;;7.35;3.55;;;;;;;6.88;53.48;100328.63;5567903;32;33849;-57
2022/01/20 15:31:50;;;;;;;7.87;3.05;;;;;;;6.88;52.86;100323.31;5563384;31;33767;-56
2022/01/20 15:34:52;;;;;;;6.03;2.70;;;;;;;6.89;52.93;100331.06;5564529;31;34013;-57
2022/01/20 15:37:54;;;;;;;5.05;2.90;;;;;;;6.62;52.82;100341.75;5560655;32;34250;-57
2022/01/20 15:40:57;;;;;;;7.25;3.17;;;;;;;6.69;53.64;100363.69;5558230;32;33239;-57
2022/01/20 15:43:59;;;;;;;7.40;3.20;;;;;;;6.72;52.91;100384.50;5554711;31;33758;-56
2022/01/20 15:47:01;;;;;;;11.10;1.90;;;;;;;6.58;55.30;100442.69;5554885;32;34131;-56
2022/01/20 15:50:05;;;;;;;1.65;1.20;;;;;;;5.59;66.04;100504.00;5548394;32;33689;-56
2022/01/20 15:53:08;;;;;;;1.42;0.65;;;;;;;5.32;68.59;100504.66;5566796;31;33695;-56
2022/01/20 15:56:10;;;;;;;3.60;0.88;;;;;;;5.07;70.32;100497.09;5565231;32;33160;-56
2022/01/20 15:59:18;;;;;;;1.15;0.77;;;;;;;4.48;70.05;100494.72;5550302;32;34364;-56
2022/01/20 16:02:20;;;;;;;1.10;1.00;;;;;;;4.15;69.86;100489.31;5566893;32;33672;-56
2022/01/20 16:05:23;;;;;;;3.65;1.20;;;;;;;4.13;69.69;100497.47;5567373;32;33274;-56
2022/01/20 16:08:26;;;;;;;1.37;0.90;;;;;;;4.16;68.27;100502.31;5567216;32;33526;-56
2022/01/20 16:11:29;;;;;;;1.50;1.25;;;;;;;4.18;64.60;100502.09;5563745;32;32588;-56
2022/01/20 16:14:31;;;;;;;1.48;1.10;;;;;;;4.06;67.57;100512.72;5568795;32;33635;-56
2022/01/20 16:17:34;;;;;;;1.95;1.30;;;;;;;3.98;64.11;100526.38;5567187;32;34397;-56
2022/01/20 16:20:36;;;;;;;2.05;1.27;;;;;;;4.23;73.12;100534.03;5552199;32;34264;-56
2022/01/20 16:23:39;;;;;;;1.80;1.08;;;;;;;4.10;62.66;100547.56;5554198;32;33767;-56
2022/01/20 16:26:41;;;;;;;1.70;1.17;;;;;;;3.96;62.01;100554.94;5567272;32;34031;-56
2022/01/20 16:29:43;;;;;;;0.80;0.80;;;;;;;3.99;61.44;100565.09;5567296;32;34344;-57
2022/01/20 16:32:46;;;;;;;1.10;1.00;;;;;;;4.37;62.18;100553.16;5567979;32;33609;-56
2022/01/20 16:35:48;;;;;;;2.28;1.08;;;;;;;4.19;58.28;100554.12;5556901;32;33708;-56
2022/01/20 16:38:51;;;;;;;4.05;1.60;;;;;;;4.08;58.59;100549.66;5562701;32;34282;-56
2022/01/20 16:41:53;;;;;;;2.12;1.40;;;;;;;4.22;59.51;100554.47;5566380;32;33727;-56
2022/01/20 16:44:55;;;;;;;3.65;1.48;;;;;;;4.32;59.17;100579.59;5550944;32;33230;-57
2022/01/20 16:47:57;;;;;;;4.05;1.67;;;;;;;4.49;60.38;100585.78;5567562;32;33778;-57
2022/01/20 16:51:00;;;;;;;7.57;1.83;;;;;;;4.53;63.06;100581.62;5568008;32;34351;-57
